Time;durP1;ratioP1;P1;durP2;ratioP2;P2;SDS_P1;SDS_P2;PMS_P1;PMS_P2;Temp;Humidity;BMP_temperature;BMP_pressure;BME280_temperature;BME280_humidity;BME280_pressure;Samples;Min_cycle;Max_cycle;Signal;HPM_P1;HPM_P2
2022/12/19 00:01:15;;;;;;;55.28;34.30;;;0.30;99.90;;;;;;5117515;27;20049;-44
2022/12/19 00:03:54;;;;;;;57.10;38.22;;;0.30;99.90;;;;;;5127260;27;20099;-41
2022/12/19 00:06:19;;;;;;;57.55;38.88;;;0.40;99.90;;;;;;5100371;27;20349;-40
2022/12/19 00:08:48;;;;;;;55.40;36.53;;;0.40;99.90;;;;;;5131963;27;20050;-41
2022/12/19 00:11:14;;;;;;;57.67;38.50;;;0.40;99.90;;;;;;5118445;27;20047;-42
2022/12/19 00:13:40;;;;;;;57.35;35.17;;;0.40;99.90;;;;;;5117800;27;20043;-40
2022/12/19 00:16:32;;;;;;;58.63;36.10;;;0.50;99.90;;;;;;5118799;27;20058;-43
2022/12/19 00:18:59;;;;;;;56.40;36.83;;;0.40;99.90;;;;;;5029940;28;20167;-44
2022/12/19 00:21:28;;;;;;;61.10;37.53;;;0.50;99.90;;;;;;5033658;28;20061;-42
2022/12/19 00:23:54;;;;;;;62.00;38.30;;;0.50;99.90;;;;;;5002993;28;20554;-42
2022/12/19 00:26:21;;;;;;;54.17;36.28;;;0.60;99.90;;;;;;5023406;28;20376;-40
2022/12/19 00:28:49;;;;;;;56.28;36.03;;;0.60;99.90;;;;;;5018444;28;20047;-42
2022/12/19 00:31:16;;;;;;;61.47;39.22;;;0.60;99.90;;;;;;5034709;28;20056;-46
2022/12/19 00:33:42;;;;;;;59.88;38.15;;;0.60;99.90;;;;;;5030216;28;20165;-44
2022/12/19 00:36:14;;;;;;;59.22;38.40;;;0.60;99.90;;;;;;5023454;28;20077;-43
2022/12/19 00:38:40;;;;;;;56.83;38.08;;;0.70;99.90;;;;;;5014772;28;20089;-44
2022/12/19 00:41:18;;;;;;;57.33;39.92;;;0.70;99.90;;;;;;5024739;28;20191;-46
2022/12/19 00:43:45;;;;;;;58.90;37.85;;;0.70;99.90;;;;;;4996850;28;20491;-42
2022/12/19 00:46:13;;;;;;;55.38;35.35;;;0.70;99.90;;;;;;5013715;28;20565;-44
2022/12/19 00:48:40;;;;;;;64.07;40.15;;;0.70;99.90;;;;;;5013082;28;20603;-46
2022/12/19 00:51:10;;;;;;;59.75;38.83;;;0.70;99.90;;;;;;5013878;28;20049;-45
2022/12/19 00:53:35;;;;;;;58.80;41.13;;;0.80;99.90;;;;;;5000299;28;20610;-42
2022/12/19 00:56:04;;;;;;;58.20;36.88;;;0.80;99.90;;;;;;5084917;27;20061;-44
2022/12/19 00:58:30;;;;;;;57.03;38.80;;;0.80;99.90;;;;;;5117746;27;20047;-45
2022/12/19 01:00:56;;;;;;;59.63;39.15;;;0.80;99.90;;;;;;5118187;27;20461;-40
2022/12/19 01:03:22;;;;;;;59.20;37.42;;;0.80;99.90;;;;;;5119042;27;20074;-43
2022/12/19 01:05:50;;;;;;;63.10;36.90;;;0.80;99.90;;;;;;5120273;27;20119;-45
2022/12/19 01:08:17;;;;;;;59.53;37.08;;;0.80;99.90;;;;;;5117513;27;20095;-40
2022/12/19 01:10:46;;;;;;;57.45;35.60;;;0.80;99.90;;;;;;5119751;27;20560;-42
2022/12/19 01:13:13;;;;;;;58.20;35.80;;;0.90;99.90;;;;;;5116972;27;20075;-45
2022/12/19 01:15:42;;;;;;;59.50;38.30;;;0.80;99.90;;;;;;5116995;27;20130;-41
2022/12/19 01:18:09;;;;;;;59.03;39.35;;;0.90;99.90;;;;;;5117052;27;20556;-43
2022/12/19 01:20:46;;;;;;;59.40;37.53;;;0.90;99.90;;;;;;5120965;27;20038;-43
2022/12/19 01:23:14;;;;;;;58.85;37.45;;;0.80;99.90;;;;;;5124668;27;20564;-44
2022/12/19 01:25:40;;;;;;;58.72;38.10;;;0.90;99.90;;;;;;5120469;27;20485;-46
2022/12/19 01:28:06;;;;;;;68.35;39.28;;;0.80;99.90;;;;;;5116437;27;20050;-42
2022/12/19 01:30:33;;;;;;;62.85;39.88;;;0.80;99.90;;;;;;5116653;27;20542;-41
2022/12/19 01:32:59;;;;;;;69.00;41.45;;;0.80;99.90;;;;;;5137924;27;20065;-43
2022/12/19 01:35:25;;;;;;;71.53;42.10;;;0.80;99.90;;;;;;5119433;27;20535;-43
2022/12/19 01:37:52;;;;;;;71.68;43.38;;;0.80;99.90;;;;;;5116613;27;20090;-46
2022/12/19 01:40:19;;;;;;;71.82;42.92;;;0.80;99.90;;;;;;5098898;27;20409;-45
2022/12/19 01:42:45;;;;;;;71.13;43.78;;;0.80;99.90;;;;;;5116059;27;20069;-44
2022/12/19 01:45:11;;;;;;;78.93;45.17;;;0.80;99.90;;;;;;5116389;27;20043;-42
2022/12/19 01:47:54;;;;;;;78.72;45.08;;;0.70;99.90;;;;;;5116534;27;20055;-44
2022/12/19 01:50:36;;;;;;;79.67;45.93;;;0.70;99.90;;;;;;5116302;27;20150;-41
2022/12/19 01:53:04;;;;;;;81.80;48.85;;;0.80;99.90;;;;;;5115888;27;20429;-44
2022/12/19 01:55:30;;;;;;;85.65;48.72;;;0.70;99.90;;;;;;5123956;27;20223;-45
2022/12/19 01:57:58;;;;;;;88.20;45.78;;;0.80;99.90;;;;;;5122964;27;20158;-41
2022/12/19 02:00:24;;;;;;;79.80;47.78;;;0.70;99.90;;;;;;5119130;27;20058;-42
2022/12/19 02:02:57;;;;;;;88.28;51.00;;;0.90;99.90;;;;;;5136617;27;20453;-41
2022/12/19 02:05:22;;;;;;;91.00;51.00;;;0.80;99.90;;;;;;5125760;27;20485;-41
2022/12/19 02:07:50;;;;;;;85.80;49.67;;;0.80;99.90;;;;;;5111520;27;20055;-42
2022/12/19 02:10:15;;;;;;;99.97;53.05;;;0.90;99.90;;;;;;5117602;27;20047;-41
2022/12/19 02:12:44;;;;;;;94.85;52.13;;;0.90;99.90;;;;;;5115948;27;20482;-42
2022/12/19 02:15:11;;;;;;;95.03;52.88;;;0.90;99.90;;;;;;5116273;27;20175;-41
2022/12/19 02:18:06;;;;;;;91.88;50.55;;;0.90;99.90;;;;;;5129557;27;20100;-42
2022/12/19 02:20:46;;;;;;;103.63;54.53;;;0.90;99.90;;;;;;5012211;28;20054;-41
2022/12/19 02:23:21;;;;;;;95.78;52.28;;;1.00;99.90;;;;;;5012005;28;20053;-43
2022/12/19 02:26:11;;;;;;;94.15;52.05;;;1.10;99.90;;;;;;5012891;28;20057;-42
2022/12/19 02:29:34;;;;;;;88.93;50.90;;;1.00;99.90;;;;;;5013692;28;20053;-41
2022/12/19 02:32:08;;;;;;;96.22;50.05;;;1.10;99.90;;;;;;4992047;28;20499;-45
2022/12/19 02:34:51;;;;;;;92.50;53.72;;;1.00;99.90;;;;;;4992588;28;20089;-44
2022/12/19 02:37:31;;;;;;;98.38;53.53;;;1.20;99.90;;;;;;4991705;28;20229;-43
2022/12/19 02:40:10;;;;;;;92.85;52.40;;;1.20;99.90;;;;;;4992403;28;20046;-43
2022/12/19 02:42:43;;;;;;;101.75;52.75;;;1.10;99.90;;;;;;4991404;28;20058;-42
2022/12/19 02:45:12;;;;;;;97.53;54.70;;;1.20;99.90;;;;;;4991443;28;20484;-44
2022/12/19 02:47:39;;;;;;;95.28;51.20;;;1.10;99.90;;;;;;4991415;28;20078;-42
2022/12/19 02:50:06;;;;;;;93.65;49.92;;;1.30;99.90;;;;;;4992495;28;20443;-44
2022/12/19 02:52:32;;;;;;;98.60;56.20;;;1.30;99.90;;;;;;4991736;28;20061;-44
2022/12/19 02:55:24;;;;;;;98.53;53.45;;;1.30;99.90;;;;;;4992174;28;20054;-43
2022/12/19 02:57:59;;;;;;;96.07;51.15;;;1.20;99.90;;;;;;5034231;28;20130;-41
2022/12/19 03:00:29;;;;;;;103.50;55.17;;;1.30;99.90;;;;;;5070541;28;20048;-44
2022/12/19 03:03:08;;;;;;;98.15;55.05;;;1.20;99.90;;;;;;5114346;27;20047;-40
2022/12/19 03:05:55;;;;;;;104.68;50.63;;;1.30;99.90;;;;;;5114301;27;20047;-46
2022/12/19 03:08:51;;;;;;;96.13;51.40;;;1.40;99.90;;;;;;5115051;27;20096;-43
2022/12/19 03:11:17;;;;;;;95.38;52.10;;;1.50;99.90;;;;;;5114808;27;20576;-46
2022/12/19 03:13:45;;;;;;;91.00;50.33;;;1.50;99.90;;;;;;5096685;27;20251;-44
2022/12/19 03:16:11;;;;;;;98.68;52.65;;;1.30;99.90;;;;;;5114922;27;20047;-44
2022/12/19 03:18:38;;;;;;;103.65;53.15;;;1.50;99.90;;;;;;5115041;27;20039;-43
2022/12/19 03:21:26;;;;;;;102.32;52.50;;;1.40;99.90;;;;;;5096663;28;20358;-45
2022/12/19 03:23:54;;;;;;;102.07;54.42;;;1.50;99.90;;;;;;5132651;27;20049;-43
2022/12/19 03:26:22;;;;;;;109.53;57.85;;;1.50;99.90;;;;;;5125463;27;20508;-43
2022/12/19 03:29:04;;;;;;;102.72;52.45;;;1.60;99.90;;;;;;5118611;27;20582;-44
2022/12/19 03:31:32;;;;;;;105.30;51.03;;;1.40;99.90;;;;;;5123287;27;20043;-44
2022/12/19 03:34:11;;;;;;;108.72;54.35;;;1.40;99.90;;;;;;5116858;27;20047;-44
2022/12/19 03:36:41;;;;;;;107.63;58.08;;;1.50;99.90;;;;;;5135780;27;20050;-43
2022/12/19 03:39:09;;;;;;;106.32;55.83;;;1.50;99.90;;;;;;5136332;27;20077;-45
2022/12/19 03:44:24;;;;;;;96.93;51.42;;;1.60;99.90;;;;;;5109177;27;20190;-44
2022/12/19 03:46:59;;;;;;;105.32;58.88;;;1.40;99.90;;;;;;5130475;27;20125;-42
2022/12/19 03:49:25;;;;;;;102.55;55.22;;;1.50;99.90;;;;;;5116510;27;20043;-43
2022/12/19 03:51:59;;;;;;;106.45;55.58;;;1.60;99.90;;;;;;5096750;28;20072;-45
2022/12/19 03:54:30;;;;;;;102.47;53.70;;;1.60;99.90;;;;;;5130750;27;20042;-42
2022/12/19 03:56:59;;;;;;;103.18;52.13;;;1.50;99.90;;;;;;5117414;27;20100;-41
2022/12/19 03:59:53;;;;;;;106.65;55.30;;;1.60;99.90;;;;;;5134257;27;20046;-44
2022/12/19 04:02:21;;;;;;;98.85;55.45;;;1.60;99.90;;;;;;5119008;27;20743;-43
2022/12/19 04:04:54;;;;;;;97.13;54.03;;;1.70;99.90;;;;;;5119360;27;20409;-42
2022/12/19 04:07:21;;;;;;;99.40;52.95;;;1.80;99.90;;;;;;5118955;27;20047;-44
2022/12/19 04:09:49;;;;;;;99.10;53.47;;;1.70;99.90;;;;;;5119866;27;20432;-46
2022/12/19 04:12:20;;;;;;;97.75;53.80;;;1.70;99.90;;;;;;5118207;27;20043;-46
2022/12/19 04:14:47;;;;;;;99.63;50.72;;;1.90;99.90;;;;;;5119567;27;20488;-42
2022/12/19 04:17:37;;;;;;;100.85;48.90;;;1.80;99.90;;;;;;5118732;27;20047;-42
2022/12/19 04:20:15;;;;;;;96.50;55.10;;;1.70;99.90;;;;;;5119008;27;20673;-42
2022/12/19 04:23:08;;;;;;;98.43;53.33;;;2.00;99.90;;;;;;5117945;27;20035;-42
2022/12/19 04:25:46;;;;;;;92.95;53.05;;;2.00;99.90;;;;;;5118591;27;20055;-42
2022/12/19 04:28:19;;;;;;;91.72;51.65;;;2.00;99.90;;;;;;5119126;27;20465;-41
2022/12/19 04:30:46;;;;;;;96.53;56.67;;;1.90;99.90;;;;;;5132393;27;20117;-42
2022/12/19 04:33:11;;;;;;;98.38;55.63;;;2.00;99.90;;;;;;5117427;27;20096;-42
2022/12/19 04:35:37;;;;;;;93.80;52.33;;;1.90;99.90;;;;;;5118229;27;20047;-46
2022/12/19 04:38:03;;;;;;;96.13;57.22;;;2.10;99.90;;;;;;5131287;27;20373;-42
2022/12/19 04:40:28;;;;;;;94.43;49.92;;;2.20;99.90;;;;;;5114762;27;20086;-42
2022/12/19 04:42:54;;;;;;;98.07;54.20;;;2.00;99.90;;;;;;5112918;27;20049;-44
2022/12/19 04:45:20;;;;;;;104.68;55.83;;;2.10;99.90;;;;;;5119022;27;20047;-47
2022/12/19 04:47:46;;;;;;;100.82;57.40;;;2.10;99.90;;;;;;5131629;27;20080;-47
2022/12/19 04:50:12;;;;;;;100.10;53.50;;;2.20;99.90;;;;;;5125067;27;20114;-43
2022/12/19 04:52:38;;;;;;;104.45;53.42;;;2.20;99.90;;;;;;5134600;27;20039;-42
2022/12/19 04:55:04;;;;;;;103.03;54.60;;;2.20;99.90;;;;;;5117920;27;20100;-42
2022/12/19 04:57:30;;;;;;;100.32;50.70;;;2.20;99.90;;;;;;5131371;27;20038;-48
2022/12/19 04:59:56;;;;;;;104.45;52.08;;;2.30;99.90;;;;;;5132304;27;20043;-42
2022/12/19 05:02:22;;;;;;;109.30;54.22;;;2.30;99.90;;;;;;5098245;27;20541;-45
2022/12/19 05:04:48;;;;;;;110.10;57.40;;;2.30;99.90;;;;;;5117250;27;20073;-41
2022/12/19 05:07:13;;;;;;;109.07;54.10;;;2.20;99.90;;;;;;5116168;27;20683;-41
2022/12/19 05:09:39;;;;;;;111.95;55.45;;;2.20;99.90;;;;;;5117516;27;20043;-46
2022/12/19 05:12:05;;;;;;;111.03;55.30;;;2.30;99.90;;;;;;5117405;27;20103;-45
2022/12/19 05:14:31;;;;;;;108.40;55.88;;;2.40;99.90;;;;;;5132040;27;20054;-45
2022/12/19 05:16:57;;;;;;;109.13;52.50;;;2.40;99.90;;;;;;5118471;27;20076;-45
2022/12/19 05:19:23;;;;;;;111.72;55.20;;;2.30;99.90;;;;;;5117604;27;20039;-43
2022/12/19 05:21:48;;;;;;;112.45;55.50;;;2.30;99.90;;;;;;5116753;27;20058;-42
2022/12/19 05:24:14;;;;;;;106.85;52.95;;;2.40;99.90;;;;;;5105362;27;20586;-41
2022/12/19 05:26:40;;;;;;;111.28;53.80;;;2.30;99.90;;;;;;5123321;27;20101;-44
2022/12/19 05:29:06;;;;;;;110.88;56.33;;;2.60;99.90;;;;;;5104747;27;20623;-42
2022/12/19 05:31:32;;;;;;;109.72;50.90;;;2.60;99.90;;;;;;5124754;27;20135;-44
2022/12/19 05:33:57;;;;;;;103.35;56.80;;;2.50;99.90;;;;;;5131293;27;20051;-42
2022/12/19 05:36:23;;;;;;;93.50;51.13;;;2.60;99.90;;;;;;5116546;27;20084;-43
2022/12/19 05:38:49;;;;;;;99.75;54.08;;;2.60;99.90;;;;;;5137638;27;20269;-43
2022/12/19 05:41:17;;;;;;;102.93;50.47;;;2.70;99.90;;;;;;5119217;27;20477;-44
2022/12/19 05:43:44;;;;;;;96.60;50.92;;;2.50;99.90;;;;;;5137827;27;20056;-43
2022/12/19 05:46:10;;;;;;;96.20;51.50;;;2.60;99.90;;;;;;5123428;27;20130;-45
2022/12/19 05:48:36;;;;;;;97.82;49.50;;;2.60;99.90;;;;;;5116859;27;20054;-44
2022/12/19 05:51:02;;;;;;;96.88;48.70;;;2.70;99.90;;;;;;5129967;27;20086;-41
2022/12/19 05:53:27;;;;;;;91.35;51.33;;;2.70;99.90;;;;;;5107769;27;20470;-42
2022/12/19 05:56:11;;;;;;;100.75;49.60;;;2.80;99.90;;;;;;5126320;27;20047;-44
2022/12/19 05:58:37;;;;;;;;;;;2.70;99.90;;;;;;5127748;27;20046;-44
2022/12/19 06:01:09;;;;;;;97.40;47.60;;;2.60;99.90;;;;;;5119969;27;19923;-45
2022/12/19 06:03:35;;;;;;;83.97;45.55;;;2.70;99.90;;;;;;5116230;27;20047;-46
2022/12/19 06:06:06;;;;;;;93.90;48.63;;;2.80;99.90;;;;;;5134562;27;20042;-45
2022/12/19 06:08:32;;;;;;;81.00;46.90;;;2.80;99.90;;;;;;5119158;27;20046;-44
2022/12/19 06:10:59;;;;;;;84.22;46.47;;;2.80;99.90;;;;;;5118386;27;20051;-42
2022/12/19 06:13:26;;;;;;;81.38;48.13;;;2.80;99.90;;;;;;5116653;27;20046;-43
2022/12/19 06:16:11;;;;;;;83.07;44.95;;;2.90;99.90;;;;;;5115919;27;20043;-45
2022/12/19 06:18:37;;;;;;;85.63;45.28;;;2.90;99.90;;;;;;5130045;27;20567;-47
2022/12/19 06:21:06;;;;;;;81.53;44.05;;;2.90;99.90;;;;;;5123722;27;20053;-42
2022/12/19 06:23:34;;;;;;;91.15;47.67;;;2.80;99.90;;;;;;5137013;27;20130;-43
2022/12/19 06:26:01;;;;;;;85.97;48.17;;;2.90;99.90;;;;;;5108697;27;20059;-45
2022/12/19 06:28:28;;;;;;;90.35;45.10;;;3.00;99.90;;;;;;5132174;27;20118;-46
2022/12/19 06:30:55;;;;;;;88.05;45.03;;;2.80;99.90;;;;;;5136702;27;20517;-43
2022/12/19 06:33:21;;;;;;;88.90;48.75;;;2.90;99.90;;;;;;5123189;27;20078;-44
2022/12/19 06:35:47;;;;;;;81.68;48.55;;;3.10;99.90;;;;;;5128801;27;20058;-47
2022/12/19 06:38:13;;;;;;;86.88;43.45;;;2.90;99.90;;;;;;5117071;27;20043;-42
2022/12/19 06:43:27;;;;;;;92.22;45.08;;;3.00;99.90;;;;;;5097564;27;20053;-47
2022/12/19 06:45:55;;;;;;;87.78;45.08;;;3.10;99.90;;;;;;5115561;27;20078;-43
2022/12/19 06:48:21;;;;;;;87.88;43.42;;;3.20;99.90;;;;;;5115328;27;20448;-45
2022/12/19 06:50:46;;;;;;;87.65;40.95;;;3.10;99.90;;;;;;5114862;27;20046;-44
2022/12/19 06:53:12;;;;;;;77.97;43.70;;;3.10;99.90;;;;;;5115866;27;20067;-46
2022/12/19 06:55:38;;;;;;;81.25;44.97;;;3.20;99.90;;;;;;5115554;27;20047;-42
2022/12/19 06:58:04;;;;;;;77.80;42.47;;;3.40;99.90;;;;;;5115383;27;20079;-41
2022/12/19 07:00:30;;;;;;;74.80;43.15;;;3.40;99.90;;;;;;5108619;27;20491;-45
2022/12/19 07:02:57;;;;;;;82.38;43.75;;;3.30;99.90;;;;;;5122188;27;20114;-41
2022/12/19 07:05:23;;;;;;;75.63;41.03;;;3.50;99.90;;;;;;5135988;27;20449;-45
2022/12/19 07:07:49;;;;;;;81.03;42.33;;;3.40;99.90;;;;;;5116894;27;20088;-46
2022/12/19 07:10:14;;;;;;;75.43;41.60;;;3.30;99.90;;;;;;5116016;27;20409;-42
2022/12/19 07:12:40;;;;;;;80.88;41.60;;;3.40;99.90;;;;;;5114518;27;20047;-44
2022/12/19 07:15:06;;;;;;;85.28;42.63;;;3.70;99.90;;;;;;5127949;27;20082;-44
2022/12/19 07:17:32;;;;;;;73.10;39.20;;;3.40;99.90;;;;;;5117032;27;20058;-43
2022/12/19 07:19:58;;;;;;;72.43;40.88;;;3.70;99.90;;;;;;5096774;28;20072;-44
2022/12/19 07:22:28;;;;;;;65.40;39.60;;;3.60;99.90;;;;;;5095217;28;20051;-41
2022/12/19 07:24:54;;;;;;;74.20;40.10;;;3.70;99.90;;;;;;5115174;27;20535;-46
2022/12/19 07:27:21;;;;;;;66.40;39.75;;;4.00;99.90;;;;;;5114372;27;20525;-42
2022/12/19 07:29:47;;;;;;;70.03;39.55;;;4.00;99.90;;;;;;5128686;27;20046;-46
2022/12/19 07:32:13;;;;;;;65.85;39.25;;;4.10;99.90;;;;;;5117770;27;20480;-46
2022/12/19 07:34:38;;;;;;;74.85;38.83;;;4.00;99.90;;;;;;5112809;27;20096;-44
2022/12/19 07:37:05;;;;;;;61.33;35.70;;;4.10;99.90;;;;;;5126006;27;20049;-46
2022/12/19 07:39:31;;;;;;;64.95;35.92;;;4.20;99.90;;;;;;5128036;27;20051;-45
2022/12/19 07:41:56;;;;;;;61.95;34.42;;;4.20;99.90;;;;;;5138450;27;20046;-44
2022/12/19 07:44:22;;;;;;;60.45;34.22;;;4.20;99.90;;;;;;5140482;27;20046;-44
2022/12/19 07:46:48;;;;;;;57.35;36.17;;;4.30;99.90;;;;;;5139938;27;20166;-46
2022/12/19 07:49:13;;;;;;;49.92;33.17;;;4.20;99.90;;;;;;5140198;27;20049;-46
2022/12/19 07:51:39;;;;;;;55.97;35.00;;;4.50;99.90;;;;;;5134505;27;20047;-44
2022/12/19 07:54:05;;;;;;;56.05;32.92;;;4.50;99.90;;;;;;5119359;27;20043;-47
2022/12/19 07:56:30;;;;;;;52.45;33.45;;;4.60;99.90;;;;;;5129291;27;20058;-43
2022/12/19 07:58:56;;;;;;;48.75;31.90;;;4.50;99.90;;;;;;5119232;27;20559;-45
2022/12/19 08:01:22;;;;;;;50.95;33.03;;;4.50;99.90;;;;;;5118244;27;20421;-47
2022/12/19 08:03:47;;;;;;;49.53;30.55;;;4.80;99.90;;;;;;5131609;27;20034;-44
2022/12/19 08:06:13;;;;;;;43.30;29.20;;;4.90;99.90;;;;;;5139161;27;20142;-44
2022/12/19 08:08:39;;;;;;;47.13;31.27;;;4.90;99.90;;;;;;5127078;27;20047;-45
2022/12/19 08:11:26;;;;;;;39.97;29.25;;;4.80;99.90;;;;;;5118489;27;20373;-44
2022/12/19 08:13:52;;;;;;;41.28;29.20;;;4.90;99.90;;;;;;5100401;27;20096;-44
2022/12/19 08:16:19;;;;;;;34.38;27.10;;;5.10;99.90;;;;;;5126891;27;20054;-45
2022/12/19 08:18:44;;;;;;;35.63;27.75;;;5.00;99.90;;;;;;5120555;27;20051;-46
2022/12/19 08:21:10;;;;;;;34.17;25.42;;;5.00;99.90;;;;;;5134009;27;20080;-45
2022/12/19 08:23:37;;;;;;;33.38;26.85;;;5.10;99.90;;;;;;5138876;27;20049;-44
2022/12/19 08:26:25;;;;;;;56.38;28.88;;;5.20;99.90;;;;;;5101345;27;20046;-45
2022/12/19 08:28:52;;;;;;;33.55;25.67;;;5.20;99.90;;;;;;5131122;27;20055;-43
2022/12/19 08:31:20;;;;;;;36.13;26.52;;;5.30;99.90;;;;;;5117098;27;20501;-45
2022/12/19 08:33:46;;;;;;;36.60;26.38;;;5.50;99.90;;;;;;5099508;27;20043;-43
2022/12/19 08:36:14;;;;;;;32.50;26.83;;;5.30;99.90;;;;;;5120248;27;20493;-46
2022/12/19 08:38:40;;;;;;;32.58;26.95;;;5.30;99.90;;;;;;5111734;27;20116;-46
2022/12/19 08:41:06;;;;;;;48.72;25.80;;;5.30;99.90;;;;;;5129411;27;20087;-43
2022/12/19 08:43:33;;;;;;;33.13;25.60;;;5.60;99.90;;;;;;5118447;27;20043;-44
2022/12/19 08:45:59;;;;;;;36.05;26.35;;;5.50;99.90;;;;;;5117270;27;20157;-44
2022/12/19 08:48:25;;;;;;;36.00;27.85;;;5.60;99.90;;;;;;5116068;27;20112;-43
2022/12/19 08:50:57;;;;;;;37.63;29.75;;;5.70;99.90;;;;;;5128263;27;20059;-43
2022/12/19 08:53:25;;;;;;;33.33;27.60;;;5.40;99.90;;;;;;5135018;27;20609;-44
2022/12/19 08:56:28;;;;;;;35.20;27.65;;;5.60;99.90;;;;;;5127500;27;20058;-47
2022/12/19 08:58:54;;;;;;;35.35;28.52;;;5.50;99.90;;;;;;5097628;27;20070;-43
2022/12/19 09:01:22;;;;;;;36.22;28.67;;;5.70;99.90;;;;;;5111374;27;20051;-45
2022/12/19 09:03:48;;;;;;;36.83;28.80;;;5.80;99.90;;;;;;5117307;27;20215;-44
2022/12/19 09:06:15;;;;;;;39.00;31.27;;;5.60;99.90;;;;;;5120437;27;20129;-46
2022/12/19 09:08:42;;;;;;;37.53;30.77;;;5.70;99.90;;;;;;5136041;27;20042;-44
2022/12/19 09:11:09;;;;;;;38.72;30.08;;;5.90;99.90;;;;;;5117447;27;20387;-47
2022/12/19 09:13:36;;;;;;;39.50;31.92;;;5.80;99.90;;;;;;5117754;27;20080;-46
2022/12/19 09:16:03;;;;;;;41.13;30.48;;;5.80;99.90;;;;;;5117100;27;20070;-45
2022/12/19 09:18:30;;;;;;;39.05;30.13;;;5.90;99.90;;;;;;5098360;27;20058;-47
2022/12/19 09:20:56;;;;;;;38.85;28.95;;;6.10;99.90;;;;;;5122786;27;20127;-43
2022/12/19 09:23:25;;;;;;;40.22;29.63;;;6.10;99.90;;;;;;5097752;27;20092;-45
2022/12/19 09:25:52;;;;;;;37.67;30.55;;;6.00;99.90;;;;;;5109321;27;20327;-45
2022/12/19 09:28:18;;;;;;;34.78;31.02;;;6.00;99.90;;;;;;5112226;27;20489;-47
2022/12/19 09:30:43;;;;;;;39.53;31.00;;;6.20;99.90;;;;;;5116893;27;20058;-47
2022/12/19 09:33:10;;;;;;;38.25;30.45;;;6.20;99.90;;;;;;5116258;27;20421;-45
2022/12/19 09:35:35;;;;;;;37.45;29.63;;;6.40;99.90;;;;;;5115974;27;20054;-47
2022/12/19 09:38:02;;;;;;;36.10;28.90;;;6.30;99.90;;;;;;5113628;27;20038;-49
2022/12/19 09:40:34;;;;;;;34.42;29.23;;;6.40;99.90;;;;;;5094749;27;20051;-49
2022/12/19 09:43:29;;;;;;;36.17;29.75;;;6.40;99.90;;;;;;5094830;27;20046;-45
2022/12/19 09:45:58;;;;;;;43.63;28.58;;;6.40;99.90;;;;;;5130983;27;20147;-45
2022/12/19 09:48:24;;;;;;;35.00;30.13;;;6.20;99.90;;;;;;5105955;27;20043;-44
2022/12/19 09:50:53;;;;;;;33.65;27.23;;;6.30;99.90;;;;;;5115331;27;20058;-44
2022/12/19 09:53:28;;;;;;;34.17;28.35;;;6.30;99.90;;;;;;5107294;27;20238;-46
2022/12/19 09:55:54;;;;;;;34.35;27.58;;;6.60;99.90;;;;;;5112788;27;20047;-48
2022/12/19 09:58:39;;;;;;;33.38;28.35;;;6.50;99.90;;;;;;5125239;27;20046;-45
2022/12/19 10:01:18;;;;;;;35.13;28.17;;;6.40;99.90;;;;;;5116780;27;20051;-47
2022/12/19 10:03:46;;;;;;;33.60;27.77;;;6.50;99.90;;;;;;5129812;27;20050;-45
2022/12/19 10:06:21;;;;;;;33.95;27.80;;;6.50;99.90;;;;;;5122732;27;20364;-43
2022/12/19 10:08:47;;;;;;;34.17;25.95;;;6.50;99.90;;;;;;5134318;27;20122;-48
2022/12/19 10:11:16;;;;;;;34.17;27.15;;;6.60;99.90;;;;;;5115568;27;20448;-44
2022/12/19 10:14:19;;;;;;;28.77;24.25;;;6.80;99.90;;;;;;5133347;27;20180;-46
2022/12/19 10:17:10;;;;;;;30.60;26.73;;;6.80;99.90;;;;;;5097619;27;20132;-43
2022/12/19 10:19:51;;;;;;;29.65;24.95;;;6.60;99.90;;;;;;5133490;27;20045;-45
2022/12/19 10:22:58;;;;;;;28.80;23.80;;;6.80;99.90;;;;;;5115999;27;20051;-43
2022/12/19 10:25:31;;;;;;;30.40;24.15;;;6.80;99.90;;;;;;5010873;28;20080;-46
2022/12/19 10:28:05;;;;;;;29.20;24.83;;;6.90;99.90;;;;;;5029578;28;20070;-42
2022/12/19 10:30:38;;;;;;;29.00;24.48;;;7.10;99.90;;;;;;5014940;28;20119;-44
2022/12/19 10:33:25;;;;;;;27.58;23.73;;;7.10;99.90;;;;;;5030057;28;20083;-43
2022/12/19 10:35:57;;;;;;;27.55;24.23;;;7.10;99.90;;;;;;4994625;28;20136;-45
2022/12/19 10:38:46;;;;;;;26.98;22.90;;;7.10;99.90;;;;;;4995727;28;20837;-46
2022/12/19 10:41:19;;;;;;;29.95;22.10;;;6.90;99.90;;;;;;5011773;28;20144;-45
2022/12/19 10:43:45;;;;;;;24.75;22.08;;;7.20;99.90;;;;;;5012011;28;20748;-45
2022/12/19 10:46:44;;;;;;;24.48;20.05;;;7.20;99.90;;;;;;4994756;28;20099;-45
2022/12/19 10:49:13;;;;;;;23.73;21.30;;;7.00;99.90;;;;;;5008629;28;20693;-47
2022/12/19 10:51:40;;;;;;;25.13;20.90;;;7.10;99.90;;;;;;5026713;28;20044;-47
2022/12/19 10:54:06;;;;;;;22.55;19.05;;;7.00;99.90;;;;;;5027648;28;20041;-44
2022/12/19 10:56:32;;;;;;;24.05;20.08;;;7.20;99.90;;;;;;5030647;28;20068;-46
2022/12/19 10:58:58;;;;;;;20.70;18.30;;;7.30;99.90;;;;;;5016020;28;20044;-51
2022/12/19 11:01:27;;;;;;;22.60;19.70;;;7.20;99.90;;;;;;5035996;27;20547;-45
2022/12/19 11:04:30;;;;;;;22.25;19.58;;;7.20;99.90;;;;;;5119031;27;20042;-45
2022/12/19 11:07:02;;;;;;;21.20;18.42;;;7.30;99.90;;;;;;5131385;27;20166;-48
2022/12/19 11:09:37;;;;;;;21.38;19.08;;;7.20;99.90;;;;;;5137041;27;20103;-43
2022/12/19 11:12:10;;;;;;;20.55;17.25;;;7.20;99.90;;;;;;5132659;27;20050;-43
2022/12/19 11:14:42;;;;;;;22.42;18.42;;;7.20;99.90;;;;;;5130186;27;20057;-49
2022/12/19 11:17:35;;;;;;;20.88;17.45;;;7.30;99.90;;;;;;5120946;27;20474;-45
2022/12/19 11:20:22;;;;;;;20.20;18.10;;;7.30;99.90;;;;;;5115706;27;20127;-44
2022/12/19 11:22:59;;;;;;;22.08;18.58;;;7.40;99.90;;;;;;5099277;27;20043;-46
2022/12/19 11:25:42;;;;;;;20.92;18.75;;;7.20;99.90;;;;;;5125135;27;20051;-45
2022/12/19 11:28:28;;;;;;;22.27;17.50;;;7.40;99.90;;;;;;5115407;27;20042;-47
2022/12/19 11:31:22;;;;;;;20.73;18.63;;;7.50;99.90;;;;;;5115391;27;20058;-44
2022/12/19 11:34:13;;;;;;;21.05;18.20;;;7.40;99.90;;;;;;5031303;28;20068;-46
2022/12/19 11:36:56;;;;;;;20.92;17.73;;;7.40;99.90;;;;;;5040661;28;20056;-46
2022/12/19 11:39:50;;;;;;;20.80;18.70;;;7.30;99.90;;;;;;5039575;28;20071;-43
2022/12/19 11:42:43;;;;;;;20.73;17.83;;;7.50;99.90;;;;;;5022363;28;20363;-43
2022/12/19 11:45:29;;;;;;;20.70;16.90;;;7.30;99.90;;;;;;5050082;28;20057;-47
2022/12/19 11:48:22;;;;;;;20.10;17.27;;;7.50;99.90;;;;;;5042234;28;20821;-44
2022/12/19 11:51:03;;;;;;;19.67;17.48;;;7.40;99.90;;;;;;5011291;28;20504;-43
2022/12/19 11:53:51;;;;;;;20.98;18.65;;;7.50;99.90;;;;;;5011668;28;20057;-50
2022/12/19 11:56:21;;;;;;;20.77;18.38;;;7.40;99.90;;;;;;5010411;28;20049;-44
2022/12/19 11:58:54;;;;;;;20.73;16.48;;;7.50;99.90;;;;;;5011068;28;20061;-46
2022/12/19 12:01:41;;;;;;;20.10;18.08;;;7.60;99.90;;;;;;5010926;28;20061;-45
2022/12/19 12:04:28;;;;;;;20.92;17.00;;;7.60;99.90;;;;;;5008786;28;20045;-46
2022/12/19 12:06:56;;;;;;;21.10;17.67;;;7.40;99.90;;;;;;4993409;28;20062;-45
2022/12/19 12:09:35;;;;;;;20.60;17.00;;;7.40;99.90;;;;;;5011042;28;20049;-47
2022/12/19 12:12:03;;;;;;;19.20;16.42;;;7.40;99.90;;;;;;5071452;28;20056;-43
2022/12/19 12:14:59;;;;;;;19.65;15.95;;;7.50;99.90;;;;;;5083617;28;20052;-44
2022/12/19 12:17:46;;;;;;;17.90;16.00;;;7.60;99.90;;;;;;5084952;28;20047;-46
2022/12/19 12:20:39;;;;;;;20.05;15.63;;;7.50;99.90;;;;;;5074086;28;20098;-45
2022/12/19 12:23:08;;;;;;;16.23;14.52;;;7.60;99.90;;;;;;5088201;28;20044;-49
2022/12/19 12:25:45;;;;;;;17.02;14.93;;;7.60;99.90;;;;;;5072465;28;20499;-46
2022/12/19 12:28:40;;;;;;;17.08;13.45;;;7.60;99.90;;;;;;5092205;27;20047;-45
2022/12/19 12:31:30;;;;;;;15.82;14.23;;;7.70;99.90;;;;;;5118592;27;20096;-49
2022/12/19 12:34:10;;;;;;;17.88;14.35;;;7.70;99.90;;;;;;5083084;27;20053;-45
2022/12/19 12:37:05;;;;;;;17.25;14.35;;;7.70;99.90;;;;;;5117617;27;20524;-47
2022/12/19 12:39:49;;;;;;;18.92;14.20;;;7.70;99.90;;;;;;5100206;27;20047;-48
2022/12/19 12:42:34;;;;;;;16.15;13.45;;;7.70;99.90;;;;;;5121528;27;20497;-46
2022/12/19 12:45:07;;;;;;;15.15;13.55;;;7.60;99.90;;;;;;5126747;27;20109;-45
2022/12/19 12:47:35;;;;;;;16.10;14.35;;;7.70;99.90;;;;;;5099315;27;20171;-47
2022/12/19 12:50:04;;;;;;;16.48;14.75;;;7.70;99.90;;;;;;5118364;27;20043;-49
2022/12/19 12:52:51;;;;;;;19.42;14.95;;;7.80;99.90;;;;;;5100494;27;20130;-47
2022/12/19 12:55:28;;;;;;;15.35;13.65;;;7.70;99.90;;;;;;5102795;27;20106;-47
2022/12/19 12:57:54;;;;;;;18.50;15.40;;;7.50;99.90;;;;;;5121651;27;20051;-44
2022/12/19 13:00:28;;;;;;;18.48;14.43;;;7.80;99.90;;;;;;5122985;27;20552;-44
2022/12/19 13:02:53;;;;;;;;;;;7.80;99.90;;;;;;5120510;27;20046;-48
2022/12/19 13:05:24;;;;;;;18.27;16.27;;;7.60;99.90;;;;;;5132594;27;20449;-43